sensor_id;sensor_type;location;lat;lon;timestamp;temperature;humidity
6174;DHT22;3120;48.796;9.796;2022-11-27T00:01:36;0.50;99.90
6174;DHT22;3120;48.796;9.796;2022-11-27T00:04:03;0.50;99.90
6174;DHT22;3120;48.796;9.796;2022-11-27T00:06:30;0.50;99.90
6174;DHT22;3120;48.796;9.796;2022-11-27T00:09:00;0.50;99.90
6174;DHT22;3120;48.796;9.796;2022-11-27T00:11:28;0.50;99.90
6174;DHT22;3120;48.796;9.796;2022-11-27T00:13:54;0.60;99.90
6174;DHT22;3120;48.796;9.796;2022-11-27T00:16:21;0.50;99.90
6174;DHT22;3120;48.796;9.796;2022-11-27T00:18:48;0.40;99.90
6174;DHT22;3120;48.796;9.796;2022-11-27T00:21:19;0.50;99.90
6174;DHT22;3120;48.796;9.796;2022-11-27T00:23:49;0.40;99.90
6174;DHT22;3120;48.796;9.796;2022-11-27T00:26:15;0.50;99.90
6174;DHT22;3120;48.796;9.796;2022-11-27T00:28:40;0.50;99.90
6174;DHT22;3120;48.796;9.796;2022-11-27T00:31:12;0.50;99.90
6174;DHT22;3120;48.796;9.796;2022-11-27T00:33:37;0.50;99.90
6174;DHT22;3120;48.796;9.796;2022-11-27T00:36:04;0.40;99.90
6174;DHT22;3120;48.796;9.796;2022-11-27T00:38:30;0.40;99.90
6174;DHT22;3120;48.796;9.796;2022-11-27T00:43:32;0.40;99.90
6174;DHT22;3120;48.796;9.796;2022-11-27T00:45:58;0.40;99.90
6174;DHT22;3120;48.796;9.796;2022-11-27T00:48:23;0.40;99.90
6174;DHT22;3120;48.796;9.796;2022-11-27T00:50:49;0.50;99.90
6174;DHT22;3120;48.796;9.796;2022-11-27T00:53:14;0.60;99.90
6174;DHT22;3120;48.796;9.796;2022-11-27T00:55:40;0.60;99.90
6174;DHT22;3120;48.796;9.796;2022-11-27T00:58:06;0.60;99.90
6174;DHT22;3120;48.796;9.796;2022-11-27T01:00:31;0.70;99.90
6174;DHT22;3120;48.796;9.796;2022-11-27T01:02:57;0.70;99.90
6174;DHT22;3120;48.796;9.796;2022-11-27T01:05:23;0.80;99.90
6174;DHT22;3120;48.796;9.796;2022-11-27T01:07:49;0.70;99.90
6174;DHT22;3120;48.796;9.796;2022-11-27T01:10:15;0.70;99.90
6174;DHT22;3120;48.796;9.796;2022-11-27T01:12:41;0.80;99.90
6174;DHT22;3120;48.796;9.796;2022-11-27T01:15:07;0.70;99.90
6174;DHT22;3120;48.796;9.796;2022-11-27T01:17:32;0.70;99.90
6174;DHT22;3120;48.796;9.796;2022-11-27T01:19:58;1.10;99.90
6174;DHT22;3120;48.796;9.796;2022-11-27T01:22:23;0.60;99.90
6174;DHT22;3120;48.796;9.796;2022-11-27T01:24:49;0.60;99.90
6174;DHT22;3120;48.796;9.796;2022-11-27T01:27:14;0.60;99.90
6174;DHT22;3120;48.796;9.796;2022-11-27T01:29:40;0.60;99.90
6174;DHT22;3120;48.796;9.796;2022-11-27T01:32:05;0.60;99.90
6174;DHT22;3120;48.796;9.796;2022-11-27T01:34:31;0.50;99.90
6174;DHT22;3120;48.796;9.796;2022-11-27T01:36:57;0.50;99.90
6174;DHT22;3120;48.796;9.796;2022-11-27T01:39:22;0.50;99.90
6174;DHT22;3120;48.796;9.796;2022-11-27T01:41:49;0.50;99.90
6174;DHT22;3120;48.796;9.796;2022-11-27T01:47:03;0.40;99.90
6174;DHT22;3120;48.796;9.796;2022-11-27T01:49:32;0.30;99.90
6174;DHT22;3120;48.796;9.796;2022-11-27T01:52:21;0.30;99.90
6174;DHT22;3120;48.796;9.796;2022-11-27T01:55:08;0.30;99.90
6174;DHT22;3120;48.796;9.796;2022-11-27T01:57:57;0.20;99.90
6174;DHT22;3120;48.796;9.796;2022-11-27T02:00:23;0.20;99.90
6174;DHT22;3120;48.796;9.796;2022-11-27T02:02:49;0.30;99.90
6174;DHT22;3120;48.796;9.796;2022-11-27T02:05:21;0.20;99.90
6174;DHT22;3120;48.796;9.796;2022-11-27T02:07:47;0.20;99.90
6174;DHT22;3120;48.796;9.796;2022-11-27T02:10:14;0.20;99.90
6174;DHT22;3120;48.796;9.796;2022-11-27T02:15:15;0.20;99.90
6174;DHT22;3120;48.796;9.796;2022-11-27T02:31:30;0.10;99.90
6174;DHT22;3120;48.796;9.796;2022-11-27T02:37:21;0.10;99.90
6174;DHT22;3120;48.796;9.796;2022-11-27T02:40:10;0.10;99.90
6174;DHT22;3120;48.796;9.796;2022-11-27T02:42:52;0.10;99.90
6174;DHT22;3120;48.796;9.796;2022-11-27T02:45:26;0.10;99.90
6174;DHT22;3120;48.796;9.796;2022-11-27T02:47:54;0.10;99.90
6174;DHT22;3120;48.796;9.796;2022-11-27T02:50:22;0.10;99.90
6174;DHT22;3120;48.796;9.796;2022-11-27T02:52:50;0.10;99.90
6174;DHT22;3120;48.796;9.796;2022-11-27T02:55:21;0.20;99.90
6174;DHT22;3120;48.796;9.796;2022-11-27T02:57:49;0.20;99.90
6174;DHT22;3120;48.796;9.796;2022-11-27T03:00:15;0.20;99.90
6174;DHT22;3120;48.796;9.796;2022-11-27T03:02:55;0.20;99.90
6174;DHT22;3120;48.796;9.796;2022-11-27T03:05:23;0.20;99.90
6174;DHT22;3120;48.796;9.796;2022-11-27T03:08:04;0.20;99.90
6174;DHT22;3120;48.796;9.796;2022-11-27T03:10:39;0.20;99.90
6174;DHT22;3120;48.796;9.796;2022-11-27T03:13:06;0.20;99.90
6174;DHT22;3120;48.796;9.796;2022-11-27T03:15:52;0.20;99.90
6174;DHT22;3120;48.796;9.796;2022-11-27T03:18:35;0.10;99.90
6174;DHT22;3120;48.796;9.796;2022-11-27T03:21:08;0.20;99.90
6174;DHT22;3120;48.796;9.796;2022-11-27T03:23:37;0.20;99.90
6174;DHT22;3120;48.796;9.796;2022-11-27T03:26:03;0.20;99.90
6174;DHT22;3120;48.796;9.796;2022-11-27T03:28:29;0.20;99.90
6174;DHT22;3120;48.796;9.796;2022-11-27T03:30:55;0.20;99.90
6174;DHT22;3120;48.796;9.796;2022-11-27T03:33:23;0.20;99.90
6174;DHT22;3120;48.796;9.796;2022-11-27T03:35:48;0.20;99.90
6174;DHT22;3120;48.796;9.796;2022-11-27T03:38:14;0.20;99.90
6174;DHT22;3120;48.796;9.796;2022-11-27T03:40:49;-0.10;99.90
6174;DHT22;3120;48.796;9.796;2022-11-27T03:43:23;0.10;99.90
6174;DHT22;3120;48.796;9.796;2022-11-27T03:46:08;0.10;99.90
6174;DHT22;3120;48.796;9.796;2022-11-27T03:49:04;0.10;99.90
6174;DHT22;3120;48.796;9.796;2022-11-27T03:57:17;-0.10;99.90
6174;DHT22;3120;48.796;9.796;2022-11-27T03:59:46;-0.10;99.90
6174;DHT22;3120;48.796;9.796;2022-11-27T04:02:15;-0.10;99.90
6174;DHT22;3120;48.796;9.796;2022-11-27T04:04:49;0.00;99.90
6174;DHT22;3120;48.796;9.796;2022-11-27T04:07:15;-0.10;99.90
6174;DHT22;3120;48.796;9.796;2022-11-27T04:09:41;-0.10;99.90
6174;DHT22;3120;48.796;9.796;2022-11-27T04:12:07;1.20;99.90
6174;DHT22;3120;48.796;9.796;2022-11-27T04:14:32;-0.10;99.90
6174;DHT22;3120;48.796;9.796;2022-11-27T04:16:58;0.00;99.90
6174;DHT22;3120;48.796;9.796;2022-11-27T04:19:23;0.00;99.90
6174;DHT22;3120;48.796;9.796;2022-11-27T04:21:49;-0.10;99.90
6174;DHT22;3120;48.796;9.796;2022-11-27T04:24:15;-0.10;99.90
6174;DHT22;3120;48.796;9.796;2022-11-27T04:26:40;-0.10;99.90
6174;DHT22;3120;48.796;9.796;2022-11-27T04:29:06;-0.20;99.90
6174;DHT22;3120;48.796;9.796;2022-11-27T04:31:31;-0.10;99.90
6174;DHT22;3120;48.796;9.796;2022-11-27T04:33:57;-0.10;99.90
6174;DHT22;3120;48.796;9.796;2022-11-27T04:36:22;0.00;99.90
6174;DHT22;3120;48.796;9.796;2022-11-27T04:38:48;0.00;99.90
6174;DHT22;3120;48.796;9.796;2022-11-27T04:41:13;0.00;99.90
6174;DHT22;3120;48.796;9.796;2022-11-27T04:43:39;0.10;99.90
6174;DHT22;3120;48.796;9.796;2022-11-27T04:46:04;0.10;99.90
6174;DHT22;3120;48.796;9.796;2022-11-27T04:48:30;0.10;99.90
6174;DHT22;3120;48.796;9.796;2022-11-27T04:50:55;0.10;99.90
6174;DHT22;3120;48.796;9.796;2022-11-27T04:53:21;0.10;99.90
6174;DHT22;3120;48.796;9.796;2022-11-27T04:55:47;0.10;99.90
6174;DHT22;3120;48.796;9.796;2022-11-27T04:58:12;0.10;99.90
6174;DHT22;3120;48.796;9.796;2022-11-27T05:00:38;0.10;99.90
6174;DHT22;3120;48.796;9.796;2022-11-27T05:03:03;0.10;99.90
6174;DHT22;3120;48.796;9.796;2022-11-27T05:05:29;0.00;99.90
6174;DHT22;3120;48.796;9.796;2022-11-27T05:07:55;0.00;99.90
6174;DHT22;3120;48.796;9.796;2022-11-27T05:10:20;0.10;99.90
6174;DHT22;3120;48.796;9.796;2022-11-27T05:12:46;0.00;99.90
6174;DHT22;3120;48.796;9.796;2022-11-27T05:15:11;0.10;99.90
6174;DHT22;3120;48.796;9.796;2022-11-27T05:17:37;0.00;99.90
6174;DHT22;3120;48.796;9.796;2022-11-27T05:20:03;0.00;99.90
6174;DHT22;3120;48.796;9.796;2022-11-27T05:22:29;0.00;99.90
6174;DHT22;3120;48.796;9.796;2022-11-27T05:24:54;0.00;99.90
6174;DHT22;3120;48.796;9.796;2022-11-27T05:27:20;0.70;99.90
6174;DHT22;3120;48.796;9.796;2022-11-27T05:29:45;-0.10;99.90
6174;DHT22;3120;48.796;9.796;2022-11-27T05:32:11;-0.20;99.90
6174;DHT22;3120;48.796;9.796;2022-11-27T05:34:36;-0.20;99.90
6174;DHT22;3120;48.796;9.796;2022-11-27T05:37:02;-0.30;99.90
6174;DHT22;3120;48.796;9.796;2022-11-27T05:39:27;-0.30;99.90
6174;DHT22;3120;48.796;9.796;2022-11-27T05:41:53;-0.30;99.90
6174;DHT22;3120;48.796;9.796;2022-11-27T05:44:19;-0.30;99.90
6174;DHT22;3120;48.796;9.796;2022-11-27T05:46:44;-0.30;99.90
6174;DHT22;3120;48.796;9.796;2022-11-27T05:49:14;-0.40;99.90
6174;DHT22;3120;48.796;9.796;2022-11-27T05:51:41;-0.30;99.90
6174;DHT22;3120;48.796;9.796;2022-11-27T05:54:07;2.40;99.90
6174;DHT22;3120;48.796;9.796;2022-11-27T05:56:32;-0.40;99.90
6174;DHT22;3120;48.796;9.796;2022-11-27T05:58:58;-0.30;99.90
6174;DHT22;3120;48.796;9.796;2022-11-27T06:01:24;-0.30;99.90
6174;DHT22;3120;48.796;9.796;2022-11-27T06:03:49;-0.30;99.90
6174;DHT22;3120;48.796;9.796;2022-11-27T06:06:17;-0.30;99.90
6174;DHT22;3120;48.796;9.796;2022-11-27T06:08:44;-0.30;99.90
6174;DHT22;3120;48.796;9.796;2022-11-27T06:11:13;-0.40;99.90
6174;DHT22;3120;48.796;9.796;2022-11-27T06:13:39;-0.40;99.90
6174;DHT22;3120;48.796;9.796;2022-11-27T06:18:31;0.80;99.90
6174;DHT22;3120;48.796;9.796;2022-11-27T06:20:57;-0.50;99.90
6174;DHT22;3120;48.796;9.796;2022-11-27T06:23:22;-0.50;99.90
6174;DHT22;3120;48.796;9.796;2022-11-27T06:25:48;1.90;99.90
6174;DHT22;3120;48.796;9.796;2022-11-27T06:28:13;-0.50;99.90
6174;DHT22;3120;48.796;9.796;2022-11-27T06:30:39;-0.50;99.90
6174;DHT22;3120;48.796;9.796;2022-11-27T06:33:05;-0.40;99.90
6174;DHT22;3120;48.796;9.796;2022-11-27T06:35:30;-0.50;99.90
6174;DHT22;3120;48.796;9.796;2022-11-27T06:37:56;-0.50;99.90
6174;DHT22;3120;48.796;9.796;2022-11-27T06:40:21;-0.50;99.90
6174;DHT22;3120;48.796;9.796;2022-11-27T06:42:47;-0.40;99.90
6174;DHT22;3120;48.796;9.796;2022-11-27T06:45:13;-0.40;99.90
6174;DHT22;3120;48.796;9.796;2022-11-27T06:47:38;-0.40;99.90
6174;DHT22;3120;48.796;9.796;2022-11-27T06:50:05;-0.40;99.90
6174;DHT22;3120;48.796;9.796;2022-11-27T06:52:30;-0.50;99.90
6174;DHT22;3120;48.796;9.796;2022-11-27T06:54:56;-0.40;99.90
6174;DHT22;3120;48.796;9.796;2022-11-27T06:57:21;-0.40;99.90
6174;DHT22;3120;48.796;9.796;2022-11-27T06:59:47;-0.40;99.90
6174;DHT22;3120;48.796;9.796;2022-11-27T07:02:13;-0.40;99.90
6174;DHT22;3120;48.796;9.796;2022-11-27T07:04:39;-0.30;99.90
6174;DHT22;3120;48.796;9.796;2022-11-27T07:07:05;-0.30;99.90
6174;DHT22;3120;48.796;9.796;2022-11-27T07:09:30;-0.30;99.90
6174;DHT22;3120;48.796;9.796;2022-11-27T07:11:56;-0.20;99.90
6174;DHT22;3120;48.796;9.796;2022-11-27T07:14:21;-0.20;99.90
6174;DHT22;3120;48.796;9.796;2022-11-27T07:16:49;-0.20;99.90
6174;DHT22;3120;48.796;9.796;2022-11-27T07:19:16;-0.20;99.90
6174;DHT22;3120;48.796;9.796;2022-11-27T07:21:41;-0.20;99.90
6174;DHT22;3120;48.796;9.796;2022-11-27T07:24:09;-0.10;99.90
6174;DHT22;3120;48.796;9.796;2022-11-27T07:26:34;0.00;99.90
6174;DHT22;3120;48.796;9.796;2022-11-27T07:29:01;0.00;99.90
6174;DHT22;3120;48.796;9.796;2022-11-27T07:31:28;0.00;99.90
6174;DHT22;3120;48.796;9.796;2022-11-27T07:33:55;1.20;99.90
6174;DHT22;3120;48.796;9.796;2022-11-27T07:36:23;0.10;99.90
6174;DHT22;3120;48.796;9.796;2022-11-27T07:38:50;0.10;99.90
6174;DHT22;3120;48.796;9.796;2022-11-27T07:41:16;0.20;99.90
6174;DHT22;3120;48.796;9.796;2022-11-27T07:43:42;0.20;99.90
6174;DHT22;3120;48.796;9.796;2022-11-27T07:46:18;0.30;99.90
6174;DHT22;3120;48.796;9.796;2022-11-27T07:48:44;0.40;99.90
6174;DHT22;3120;48.796;9.796;2022-11-27T07:51:12;0.40;99.90
6174;DHT22;3120;48.796;9.796;2022-11-27T07:53:39;0.40;99.90
6174;DHT22;3120;48.796;9.796;2022-11-27T07:56:06;0.50;99.90
6174;DHT22;3120;48.796;9.796;2022-11-27T07:58:34;0.30;99.90
6174;DHT22;3120;48.796;9.796;2022-11-27T08:01:00;3.10;99.90
6174;DHT22;3120;48.796;9.796;2022-11-27T08:03:29;0.40;99.90
6174;DHT22;3120;48.796;9.796;2022-11-27T08:05:55;0.60;99.90
6174;DHT22;3120;48.796;9.796;2022-11-27T08:08:21;0.70;99.90
6174;DHT22;3120;48.796;9.796;2022-11-27T08:10:46;0.80;99.90
6174;DHT22;3120;48.796;9.796;2022-11-27T08:13:12;0.90;99.90
6174;DHT22;3120;48.796;9.796;2022-11-27T08:15:37;0.80;99.90
6174;DHT22;3120;48.796;9.796;2022-11-27T08:18:03;0.90;99.90
6174;DHT22;3120;48.796;9.796;2022-11-27T08:20:29;0.90;99.90
6174;DHT22;3120;48.796;9.796;2022-11-27T08:22:55;0.90;99.90
6174;DHT22;3120;48.796;9.796;2022-11-27T08:25:20;0.80;99.90
6174;DHT22;3120;48.796;9.796;2022-11-27T08:27:46;3.00;99.90
6174;DHT22;3120;48.796;9.796;2022-11-27T08:30:13;1.10;99.90
6174;DHT22;3120;48.796;9.796;2022-11-27T08:32:40;3.20;99.90
6174;DHT22;3120;48.796;9.796;2022-11-27T08:35:06;1.40;99.90
6174;DHT22;3120;48.796;9.796;2022-11-27T08:37:33;1.60;99.90
6174;DHT22;3120;48.796;9.796;2022-11-27T08:39:59;3.10;99.90
6174;DHT22;3120;48.796;9.796;2022-11-27T08:42:24;1.80;99.90
6174;DHT22;3120;48.796;9.796;2022-11-27T08:44:50;2.00;99.90
6174;DHT22;3120;48.796;9.796;2022-11-27T08:47:15;2.10;99.90
6174;DHT22;3120;48.796;9.796;2022-11-27T08:49:42;2.10;99.90
6174;DHT22;3120;48.796;9.796;2022-11-27T08:52:08;2.30;99.90
6174;DHT22;3120;48.796;9.796;2022-11-27T08:54:34;2.30;99.90
6174;DHT22;3120;48.796;9.796;2022-11-27T08:57:00;2.30;99.90
6174;DHT22;3120;48.796;9.796;2022-11-27T08:59:25;2.30;99.90
6174;DHT22;3120;48.796;9.796;2022-11-27T09:01:51;2.40;99.90
6174;DHT22;3120;48.796;9.796;2022-11-27T09:04:17;2.50;99.90
6174;DHT22;3120;48.796;9.796;2022-11-27T09:06:42;2.60;99.90
6174;DHT22;3120;48.796;9.796;2022-11-27T09:09:08;2.70;99.90
6174;DHT22;3120;48.796;9.796;2022-11-27T09:11:35;2.70;99.90
6174;DHT22;3120;48.796;9.796;2022-11-27T09:14:01;2.70;99.90
6174;DHT22;3120;48.796;9.796;2022-11-27T09:16:28;2.70;99.90
6174;DHT22;3120;48.796;9.796;2022-11-27T09:18:55;2.80;99.90
6174;DHT22;3120;48.796;9.796;2022-11-27T09:21:23;2.90;99.90
6174;DHT22;3120;48.796;9.796;2022-11-27T09:23:57;3.00;99.90
6174;DHT22;3120;48.796;9.796;2022-11-27T09:26:22;3.10;99.90
6174;DHT22;3120;48.796;9.796;2022-11-27T09:28:52;3.10;99.90
6174;DHT22;3120;48.796;9.796;2022-11-27T09:31:18;3.30;99.90
6174;DHT22;3120;48.796;9.796;2022-11-27T09:33:44;3.30;99.90
6174;DHT22;3120;48.796;9.796;2022-11-27T09:36:15;3.40;99.90
6174;DHT22;3120;48.796;9.796;2022-11-27T09:38:41;3.50;99.90
6174;DHT22;3120;48.796;9.796;2022-11-27T09:44:05;3.70;99.90
6174;DHT22;3120;48.796;9.796;2022-11-27T09:46:32;3.80;99.90
6174;DHT22;3120;48.796;9.796;2022-11-27T09:49:03;5.70;99.90
6174;DHT22;3120;48.796;9.796;2022-11-27T09:51:36;4.00;99.90
6174;DHT22;3120;48.796;9.796;2022-11-27T09:54:14;4.20;99.90
6174;DHT22;3120;48.796;9.796;2022-11-27T09:56:46;4.30;99.90
6174;DHT22;3120;48.796;9.796;2022-11-27T09:59:18;4.60;99.90
6174;DHT22;3120;48.796;9.796;2022-11-27T10:01:44;4.70;99.90
6174;DHT22;3120;48.796;9.796;2022-11-27T10:04:12;4.80;99.90
6174;DHT22;3120;48.796;9.796;2022-11-27T10:15:25;5.20;99.90
6174;DHT22;3120;48.796;9.796;2022-11-27T10:17:59;5.50;99.90
6174;DHT22;3120;48.796;9.796;2022-11-27T10:20:44;5.50;99.90
6174;DHT22;3120;48.796;9.796;2022-11-27T10:31:07;6.50;99.90
6174;DHT22;3120;48.796;9.796;2022-11-27T10:33:41;6.30;99.90
6174;DHT22;3120;48.796;9.796;2022-11-27T10:36:17;6.40;99.90
6174;DHT22;3120;48.796;9.796;2022-11-27T10:38:47;6.50;99.90
6174;DHT22;3120;48.796;9.796;2022-11-27T10:41:20;6.20;99.90
6174;DHT22;3120;48.796;9.796;2022-11-27T10:43:52;6.90;99.90
6174;DHT22;3120;48.796;9.796;2022-11-27T10:46:24;7.40;99.90
6174;DHT22;3120;48.796;9.796;2022-11-27T10:48:52;8.40;63.40
6174;DHT22;3120;48.796;9.796;2022-11-27T10:51:21;9.40;98.80
6174;DHT22;3120;48.796;9.796;2022-11-27T10:53:51;7.30;72.50
6174;DHT22;3120;48.796;9.796;2022-11-27T10:56:49;9.00;1.00
6174;DHT22;3120;48.796;9.796;2022-11-27T10:59:26;7.40;2.20
6174;DHT22;3120;48.796;9.796;2022-11-27T11:01:54;9.90;1.00
6174;DHT22;3120;48.796;9.796;2022-11-27T11:04:28;7.60;1.00
6174;DHT22;3120;48.796;9.796;2022-11-27T11:06:58;8.60;1.00
6174;DHT22;3120;48.796;9.796;2022-11-27T11:09:29;7.80;99.90
6174;DHT22;3120;48.796;9.796;2022-11-27T11:12:15;7.80;28.10
6174;DHT22;3120;48.796;9.796;2022-11-27T11:14:59;9.90;22.00
6174;DHT22;3120;48.796;9.796;2022-11-27T11:17:25;8.70;1.00
6174;DHT22;3120;48.796;9.796;2022-11-27T11:19:52;8.00;99.90
6174;DHT22;3120;48.796;9.796;2022-11-27T11:22:18;10.30;99.90
6174;DHT22;3120;48.796;9.796;2022-11-27T11:24:53;8.10;1.00
6174;DHT22;3120;48.796;9.796;2022-11-27T11:27:24;10.10;1.00
6174;DHT22;3120;48.796;9.796;2022-11-27T11:29:56;8.20;99.90
6174;DHT22;3120;48.796;9.796;2022-11-27T11:32:27;8.20;99.90
6174;DHT22;3120;48.796;9.796;2022-11-27T11:35:03;8.30;1.00
6174;DHT22;3120;48.796;9.796;2022-11-27T11:37:38;8.40;1.00
6174;DHT22;3120;48.796;9.796;2022-11-27T11:42:35;8.30;99.90
6174;DHT22;3120;48.796;9.796;2022-11-27T11:45:14;8.70;1.00
6174;DHT22;3120;48.796;9.796;2022-11-27T11:47:49;8.50;99.90
6174;DHT22;3120;48.796;9.796;2022-11-27T11:55:44;8.60;99.90
6174;DHT22;3120;48.796;9.796;2022-11-27T12:01:34;9.60;99.90
6174;DHT22;3120;48.796;9.796;2022-11-27T12:04:39;8.60;99.90
6174;DHT22;3120;48.796;9.796;2022-11-27T12:09:58;8.60;99.90
6174;DHT22;3120;48.796;9.796;2022-11-27T12:15:43;8.50;99.90
6174;DHT22;3120;48.796;9.796;2022-11-27T12:21:13;8.60;99.90
6174;DHT22;3120;48.796;9.796;2022-11-27T12:37:14;8.90;98.40
6174;DHT22;3120;48.796;9.796;2022-11-27T12:42:20;9.10;68.00
6174;DHT22;3120;48.796;9.796;2022-11-27T12:44:53;9.00;63.70
6174;DHT22;3120;48.796;9.796;2022-11-27T12:50:03;8.90;99.90
6174;DHT22;3120;48.796;9.796;2022-11-27T12:52:37;8.90;99.90
6174;DHT22;3120;48.796;9.796;2022-11-27T12:55:12;8.90;99.90
6174;DHT22;3120;48.796;9.796;2022-11-27T13:00:18;8.90;99.90
6174;DHT22;3120;48.796;9.796;2022-11-27T13:03:13;9.00;69.80
6174;DHT22;3120;48.796;9.796;2022-11-27T13:05:48;9.00;28.10
6174;DHT22;3120;48.796;9.796;2022-11-27T13:08:33;8.90;94.00
6174;DHT22;3120;48.796;9.796;2022-11-27T13:11:11;8.90;67.30
6174;DHT22;3120;48.796;9.796;2022-11-27T13:13:43;8.80;99.90
6174;DHT22;3120;48.796;9.796;2022-11-27T13:16:20;8.70;99.90
6174;DHT22;3120;48.796;9.796;2022-11-27T13:21:32;8.70;99.90
6174;DHT22;3120;48.796;9.796;2022-11-27T13:24:00;8.60;95.00
6174;DHT22;3120;48.796;9.796;2022-11-27T13:26:33;8.50;99.90
6174;DHT22;3120;48.796;9.796;2022-11-27T13:29:06;8.50;99.90
6174;DHT22;3120;48.796;9.796;2022-11-27T13:31:36;8.50;99.90
6174;DHT22;3120;48.796;9.796;2022-11-27T13:34:14;8.40;99.90
6174;DHT22;3120;48.796;9.796;2022-11-27T13:36:43;9.80;99.90
6174;DHT22;3120;48.796;9.796;2022-11-27T13:39:30;8.30;99.90
6174;DHT22;3120;48.796;9.796;2022-11-27T13:44:33;8.30;99.90
6174;DHT22;3120;48.796;9.796;2022-11-27T13:47:07;8.30;83.70
6174;DHT22;3120;48.796;9.796;2022-11-27T13:49:35;8.30;99.90
6174;DHT22;3120;48.796;9.796;2022-11-27T13:54:50;8.50;99.90
6174;DHT22;3120;48.796;9.796;2022-11-27T13:57:17;9.30;82.70
6174;DHT22;3120;48.796;9.796;2022-11-27T14:02:22;8.40;99.90
6174;DHT22;3120;48.796;9.796;2022-11-27T14:04:52;8.60;82.00
6174;DHT22;3120;48.796;9.796;2022-11-27T14:07:18;8.40;92.90
6174;DHT22;3120;48.796;9.796;2022-11-27T14:09:51;8.40;90.70
6174;DHT22;3120;48.796;9.796;2022-11-27T14:12:25;9.20;32.00
6174;DHT22;3120;48.796;9.796;2022-11-27T14:17:40;8.30;52.50
6174;DHT22;3120;48.796;9.796;2022-11-27T14:22:46;8.10;99.90
6174;DHT22;3120;48.796;9.796;2022-11-27T14:27:53;8.00;99.90
6174;DHT22;3120;48.796;9.796;2022-11-27T14:30:34;7.90;99.90
6174;DHT22;3120;48.796;9.796;2022-11-27T14:33:04;7.80;99.90
6174;DHT22;3120;48.796;9.796;2022-11-27T14:35:30;9.00;99.90
6174;DHT22;3120;48.796;9.796;2022-11-27T14:38:12;7.60;99.90
6174;DHT22;3120;48.796;9.796;2022-11-27T14:40:39;7.60;99.90
6174;DHT22;3120;48.796;9.796;2022-11-27T14:43:16;7.50;99.90
6174;DHT22;3120;48.796;9.796;2022-11-27T14:45:47;7.50;99.90
6174;DHT22;3120;48.796;9.796;2022-11-27T14:51:18;7.20;99.90
6174;DHT22;3120;48.796;9.796;2022-11-27T14:53:47;7.10;99.90
6174;DHT22;3120;48.796;9.796;2022-11-27T14:56:14;7.00;99.90
6174;DHT22;3120;48.796;9.796;2022-11-27T14:58:48;7.00;99.90
6174;DHT22;3120;48.796;9.796;2022-11-27T15:03:57;6.90;1.00
6174;DHT22;3120;48.796;9.796;2022-11-27T15:06:24;6.90;1.00
6174;DHT22;3120;48.796;9.796;2022-11-27T15:08:51;6.80;1.00
6174;DHT22;3120;48.796;9.796;2022-11-27T15:11:17;7.40;1.00
6174;DHT22;3120;48.796;9.796;2022-11-27T15:13:48;6.70;1.00
6174;DHT22;3120;48.796;9.796;2022-11-27T15:16:20;6.70;1.00
6174;DHT22;3120;48.796;9.796;2022-11-27T15:18:50;6.70;1.00
6174;DHT22;3120;48.796;9.796;2022-11-27T15:21:20;6.70;1.00
6174;DHT22;3120;48.796;9.796;2022-11-27T15:23:51;6.70;99.90
6174;DHT22;3120;48.796;9.796;2022-11-27T15:28:57;6.60;1.00
6174;DHT22;3120;48.796;9.796;2022-11-27T15:42:08;6.20;1.00
6174;DHT22;3120;48.796;9.796;2022-11-27T15:44:34;6.20;1.00
6174;DHT22;3120;48.796;9.796;2022-11-27T15:47:01;7.80;1.00
6174;DHT22;3120;48.796;9.796;2022-11-27T15:49:28;6.10;42.80
6174;DHT22;3120;48.796;9.796;2022-11-27T15:51:54;6.10;89.30
6174;DHT22;3120;48.796;9.796;2022-11-27T15:54:21;6.10;1.00
6174;DHT22;3120;48.796;9.796;2022-11-27T15:56:46;6.00;85.10
6174;DHT22;3120;48.796;9.796;2022-11-27T15:59:12;6.00;1.00
6174;DHT22;3120;48.796;9.796;2022-11-27T16:01:38;5.90;1.00
6174;DHT22;3120;48.796;9.796;2022-11-27T16:04:04;5.80;99.90
6174;DHT22;3120;48.796;9.796;2022-11-27T16:06:39;5.80;99.90
6174;DHT22;3120;48.796;9.796;2022-11-27T16:09:05;5.80;99.90
6174;DHT22;3120;48.796;9.796;2022-11-27T16:11:31;6.50;99.90
6174;DHT22;3120;48.796;9.796;2022-11-27T16:13:57;5.70;99.90
6174;DHT22;3120;48.796;9.796;2022-11-27T16:16:23;5.70;1.00
6174;DHT22;3120;48.796;9.796;2022-11-27T16:18:49;7.40;1.00
6174;DHT22;3120;48.796;9.796;2022-11-27T16:21:16;5.60;1.00
6174;DHT22;3120;48.796;9.796;2022-11-27T16:23:41;5.60;1.00
6174;DHT22;3120;48.796;9.796;2022-11-27T16:26:10;5.60;99.90
6174;DHT22;3120;48.796;9.796;2022-11-27T16:28:36;7.30;99.90
6174;DHT22;3120;48.796;9.796;2022-11-27T16:31:05;6.20;1.00
6174;DHT22;3120;48.796;9.796;2022-11-27T16:33:31;5.60;99.90
6174;DHT22;3120;48.796;9.796;2022-11-27T16:36:09;5.60;99.60
6174;DHT22;3120;48.796;9.796;2022-11-27T16:38:35;5.70;99.90
6174;DHT22;3120;48.796;9.796;2022-11-27T16:41:03;5.60;10.10
6174;DHT22;3120;48.796;9.796;2022-11-27T16:43:33;5.60;1.00
6174;DHT22;3120;48.796;9.796;2022-11-27T16:46:26;5.60;1.00
6174;DHT22;3120;48.796;9.796;2022-11-27T16:48:53;5.50;74.30
6174;DHT22;3120;48.796;9.796;2022-11-27T16:51:21;5.50;99.90
6174;DHT22;3120;48.796;9.796;2022-11-27T16:53:48;5.60;1.00
6174;DHT22;3120;48.796;9.796;2022-11-27T16:56:16;5.60;1.00
6174;DHT22;3120;48.796;9.796;2022-11-27T16:58:43;5.60;1.00
6174;DHT22;3120;48.796;9.796;2022-11-27T17:01:21;5.60;1.00
6174;DHT22;3120;48.796;9.796;2022-11-27T17:03:47;5.60;1.00
6174;DHT22;3120;48.796;9.796;2022-11-27T17:06:15;5.60;99.90
6174;DHT22;3120;48.796;9.796;2022-11-27T17:08:41;5.60;99.90
6174;DHT22;3120;48.796;9.796;2022-11-27T17:11:18;6.80;99.90
6174;DHT22;3120;48.796;9.796;2022-11-27T17:13:45;5.60;99.90
6174;DHT22;3120;48.796;9.796;2022-11-27T17:16:12;5.60;99.90
6174;DHT22;3120;48.796;9.796;2022-11-27T17:18:39;5.60;2.90
6174;DHT22;3120;48.796;9.796;2022-11-27T17:21:08;5.50;1.00
6174;DHT22;3120;48.796;9.796;2022-11-27T17:23:34;5.60;1.00
6174;DHT22;3120;48.796;9.796;2022-11-27T17:26:11;5.50;1.00
6174;DHT22;3120;48.796;9.796;2022-11-27T17:28:37;5.50;99.90
6174;DHT22;3120;48.796;9.796;2022-11-27T17:31:11;5.50;1.00
6174;DHT22;3120;48.796;9.796;2022-11-27T17:33:37;5.50;99.90
6174;DHT22;3120;48.796;9.796;2022-11-27T17:36:03;5.40;99.90
6174;DHT22;3120;48.796;9.796;2022-11-27T17:38:29;5.30;99.90
6174;DHT22;3120;48.796;9.796;2022-11-27T17:41:09;5.30;1.00
6174;DHT22;3120;48.796;9.796;2022-11-27T17:43:36;5.40;1.00
6174;DHT22;3120;48.796;9.796;2022-11-27T17:46:16;7.20;1.00
6174;DHT22;3120;48.796;9.796;2022-11-27T17:48:43;5.40;1.00
6174;DHT22;3120;48.796;9.796;2022-11-27T17:51:08;5.40;99.90
6174;DHT22;3120;48.796;9.796;2022-11-27T17:53:34;5.40;1.00
6174;DHT22;3120;48.796;9.796;2022-11-27T17:56:09;5.40;46.90
6174;DHT22;3120;48.796;9.796;2022-11-27T17:58:35;5.30;69.50
6174;DHT22;3120;48.796;9.796;2022-11-27T18:01:02;5.20;94.50
6174;DHT22;3120;48.796;9.796;2022-11-27T18:03:28;5.20;1.00
6174;DHT22;3120;48.796;9.796;2022-11-27T18:05:54;6.40;1.00
6174;DHT22;3120;48.796;9.796;2022-11-27T18:08:19;6.80;1.00
6174;DHT22;3120;48.796;9.796;2022-11-27T18:10:46;5.30;1.00
6174;DHT22;3120;48.796;9.796;2022-11-27T18:13:11;5.30;99.90
6174;DHT22;3120;48.796;9.796;2022-11-27T18:15:37;5.30;99.90
6174;DHT22;3120;48.796;9.796;2022-11-27T18:18:03;5.20;1.00
6174;DHT22;3120;48.796;9.796;2022-11-27T18:20:28;5.20;99.90
6174;DHT22;3120;48.796;9.796;2022-11-27T18:22:54;7.10;99.90
6174;DHT22;3120;48.796;9.796;2022-11-27T18:25:20;6.70;99.90
6174;DHT22;3120;48.796;9.796;2022-11-27T18:27:46;5.20;1.00
6174;DHT22;3120;48.796;9.796;2022-11-27T18:30:12;5.10;95.20
6174;DHT22;3120;48.796;9.796;2022-11-27T18:32:38;5.10;99.90
6174;DHT22;3120;48.796;9.796;2022-11-27T18:35:05;5.00;99.90
6174;DHT22;3120;48.796;9.796;2022-11-27T18:37:32;5.00;99.90
6174;DHT22;3120;48.796;9.796;2022-11-27T18:39:58;5.00;99.90